• Join FlightAware (Why Join?)
  • Login
  • US Flag 
06:40AM EDT


 

Airport Tracker/Info


-or-


 

Live Flight TrackerFlight Track Log ✈ N137TK ✈ 16-Oct-2013 ✈ KAPF - KNEW

Flight Track Log - Related Links

Times and Time Zones

All times are in EDT time to prevent confusion due to time zone crossing. See the N137TK flight status page for this flight to view local times or setup timezone preferences in your user account.

Time Position Orientation Groundspeed Altitude Reporting Facility
EDT Latitude Longitude Course Direction KTS MPH feet Rate Location/Type
10:07AM 26.2311 -81.7292 264° West 178 205 3,700  Level Miami Center
10:08AM 26.2531 -81.7603 308° West 151 174 5,700 1,920 Climbing Miami Center
10:09AM 26.2533 -81.8111 270° West 151 174 7,600 1,800 Climbing Miami Center
10:10AM 26.2578 -81.8669 275° West 171 197 9,400 1,800 Climbing Miami Center
10:11AM 26.3161 -82.0923 303° West  Level Estimated
10:11AM 26.2683 -81.9183 283° West 177 204 11,200  Level Miami Center
10:12AM 26.3095 -82.1650 264° West  Level FlightAware Approximate
10:12AM 26.2875 -81.9725 292° West 177 204 12,600  Level Miami Center
10:13AM 26.3106 -82.0244 296° West 188 216 13,800 1,260 Climbing Miami Center
10:14AM 26.3339 -82.0764 297° West 193 222 15,200 1,260 Climbing Miami Center
10:15AM 26.3550 -82.1306 294° West 193 222 16,400 1,140 Climbing Miami Center
10:16AM 26.3758 -82.1847 293° West 193 222 17,500 1,140 Climbing Miami Center
10:17AM 26.4028 -82.2439 297° West 193 222 18,700 1,080 Climbing Miami Center
10:18AM 26.4239 -82.2983 293° West 193 222 19,700 1,020 Climbing Miami Center
10:19AM 26.4467 -82.3550 294° West 198 228 20,800 1,080 Climbing Miami Center
10:20AM 26.4697 -82.4069 296° West 193 222 21,900 960 Climbing Miami Center
10:21AM 26.4908 -82.4567 295° West 187 215 22,800 900 Climbing Miami Center
10:22AM 26.5119 -82.5089 294° West 187 215 23,800 900 Climbing Miami Center
10:23AM 26.5347 -82.5633 295° West 187 215 24,600 780 Climbing Miami Center
10:24AM 26.5536 -82.6153 292° West 187 215 25,400 660 Climbing Miami Center
10:25AM 26.5786 -82.6675 298° West 187 215 26,000 300 Climbing Miami Center
10:26AM 26.6033 -82.7314 293° West 204 235 26,000  Level Miami Center
10:27AM 26.6297 -82.7956 295° West 220 253 26,000  Level Miami Center
10:28AM 26.6600 -82.8714 294° West 243 280 26,000  Level Miami Center
10:29AM 26.6906 -82.9425 296° West 255 293 26,000  Level Miami Center
10:30AM 26.7208 -83.0183 294° West 262 302 26,000  Level Miami Center
10:31AM 26.7508 -83.0944 294° West 262 302 26,000  Level Miami Center
10:32AM 26.7831 -83.1683 296° West 262 302 26,000  Level Miami Center
10:33AM 26.8153 -83.2444 295° West 262 302 26,000  Level Miami Center
10:34AM 26.8433 -83.3181 293° West 262 302 26,000  Level Miami Center
10:35AM 26.8753 -83.3942 295° West 262 302 26,000  Level Miami Center
10:36AM 26.9053 -83.4703 294° West 262 302 26,000  Level Miami Center
10:37AM 26.9353 -83.5442 294° West 262 302 26,000  Level Miami Center
10:38AM 26.9672 -83.6228 295° West 262 302 26,000  Level Miami Center
10:39AM 26.9950 -83.6967 293° West 262 302 26,000  Level Miami Center
10:40AM 27.0192 -83.7564 294° West 262 302 26,000  Level Miami Center
10:41AM 27.0567 -83.8469 295° West 262 302 26,000  Level Miami Center
10:42AM 27.0806 -83.9136 292° West 262 302 26,000  Level Miami Center
10:43AM 27.1164 -83.9881 298° West 262 302 26,000  Level Miami Center
10:44AM 27.1461 -84.0644 294° West 262 302 26,000  Level Miami Center
10:45AM 27.1778 -84.1389 296° West 262 302 26,000  Level Miami Center
10:46AM 27.2031 -84.2150 290° West 262 302 26,000  Level Miami Center
10:47AM 27.2325 -84.2917 293° West 262 302 26,000  Level Miami Center
10:49AM 27.3078 -84.4731 295° West 276 318 26,000  Level Jacksonville Center
10:50AM 27.3361 -84.5506 292° West 276 318 26,000  Level Jacksonville Center
10:51AM 27.3642 -84.6281 292° West 276 318 26,000  Level Jacksonville Center
10:52AM 27.3967 -84.7036 296° West 271 312 26,000  Level Jacksonville Center
10:53AM 27.4289 -84.7789 296° West 271 312 26,000  Level Jacksonville Center
10:54AM 27.4569 -84.8564 292° West 271 312 26,000  Level Jacksonville Center
10:55AM 27.4892 -84.9342 295° West 271 312 26,000  Level Jacksonville Center
10:56AM 27.5150 -85.0097 291° West 271 312 26,000  Level Jacksonville Center
10:57AM 27.5408 -85.0850 291° West 276 318 26,000  Level Jacksonville Center
10:58AM 27.5731 -85.1631 295° West 269 310 26,000  Level Jacksonville Center
10:59AM 27.6031 -85.2317 296° West 269 310 26,000  Level Jacksonville Center
11:00AM 27.6328 -85.3094 293° West 269 310 26,000  Level Jacksonville Center
11:01AM 27.6606 -85.3875 292° West 269 310 26,000  Level Jacksonville Center
11:02AM 27.6903 -85.4656 293° West 269 310 26,000  Level Jacksonville Center
11:03AM 27.7181 -85.5319 295° West 266 306 26,000  Level Jacksonville Center
11:04AM 27.7497 -85.6147 293° West 266 306 26,000  Level Jacksonville Center
11:05AM 27.7775 -85.6858 294° West 266 306 26,000  Level Jacksonville Center
11:06AM 27.8089 -85.7781 291° West 268 308 26,000  Level Jacksonville Center
11:07AM 27.8367 -85.8422 296° West 261 300 26,000  Level Jacksonville Center
11:08AM 27.8661 -85.9206 293° West 266 306 26,000  Level Jacksonville Center
11:09AM 27.8956 -85.9967 294° West 266 306 26,000  Level Jacksonville Center
11:10AM 27.9228 -86.0725 292° West 266 306 26,000  Level Jacksonville Center
11:11AM 27.9544 -86.1511 295° West 264 304 26,000  Level Jacksonville Center
11:12AM 27.9814 -86.2317 291° West 274 315 26,000  Level Jacksonville Center
11:13AM 28.0089 -86.2961 296° West 264 304 26,000  Level Jacksonville Center
11:14AM 28.0400 -86.3794 293° West 264 304 26,000  Level Jacksonville Center
11:15AM 28.0692 -86.4606 292° West 269 310 26,000  Level Jacksonville Center
11:16AM 28.0944 -86.5272 293° West 268 308 26,000  Level Jacksonville Center
11:17AM 28.1233 -86.6083 292° West 259 298 26,000  Level Jacksonville Center
11:18AM 28.1525 -86.6822 294° West 264 304 26,000  Level Jacksonville Center
11:19AM 28.1797 -86.7539 293° West 257 296 26,000  Level Jacksonville Center
11:20AM 28.2064 -86.8303 292° West 262 302 26,000  Level Jacksonville Center
11:21AM 28.2375 -86.9069 295° West 262 302 26,000  Level Jacksonville Center
11:22AM 28.2644 -86.9833 292° West 256 295 26,000  Level Jacksonville Center
11:23AM 28.2911 -87.0550 293° West 251 289 26,000  Level Jacksonville Center
11:24AM 28.3200 -87.1342 293° West 261 300 26,000  Level Jacksonville Center
11:25AM 28.3361 -87.1756 294° West 262 302 26,000  Level Houston Center
11:26AM 28.3644 -87.2522 293° West 262 302 26,000  Level Houston Center
11:27AM 28.3972 -87.3428 292° West 261 300 26,000  Level Houston Center
11:28AM 28.4244 -87.4186 292° West 260 299 26,000  Level Houston Center
11:29AM 28.4519 -87.4936 293° West 259 298 26,000  Level Houston Center
11:30AM 28.4800 -87.5706 293° West 261 300 26,000  Level Houston Center
11:31AM 28.5081 -87.6453 293° West 260 299 26,000  Level Houston Center
11:32AM 28.5339 -87.7214 291° West 259 298 26,000  Level Houston Center
11:33AM 28.5622 -87.7969 293° West 259 298 26,000  Level Houston Center
11:34AM 28.5956 -87.8883 293° West 260 299 26,000  Level Houston Center
11:35AM 28.6219 -87.9642 292° West 259 298 26,000  Level Houston Center
11:36AM 28.6489 -88.0400 292° West 259 298 26,000  Level Houston Center
11:37AM 28.6797 -88.1200 294° West 258 297 26,000  Level Houston Center
11:38AM 28.7228 -88.1861 307° West 258 297 26,000  Level Houston Center
11:39AM 28.7650 -88.2528 306° West 260 299 26,000  Level Houston Center
11:40AM 28.8067 -88.3181 306° West 257 296 26,000  Level Houston Center
11:41AM 28.8483 -88.3839 306° West 257 296 26,000 -360 Level Houston Center
11:42AM 28.8906 -88.4514 306° West 258 297 25,300 -960 Descending Houston Center
11:43AM 28.9469 -88.5397 306° West 281 323 24,100 -1,080 Descending Houston Center
11:44AM 28.9928 -88.6153 305° West 288 331 23,100 -1,020 Descending Houston Center
11:45AM 29.0406 -88.6897 306° West 290 334 22,100 -1,020 Descending Houston Center
11:46AM 29.0872 -88.7644 306° West 290 334 21,100 -1,020 Descending Houston Center
11:47AM 29.1333 -88.8392 305° West 288 331 20,100 -1,020 Descending Houston Center
11:48AM 29.1806 -88.9128 306° West 287 330 19,100 -1,080 Descending Houston Center
11:49AM 29.2369 -89.0025 306° West 289 333 17,900 -1,020 Descending Houston Center
11:50AM 29.2825 -89.0778 305° West 288 331 17,000 -960 Descending Houston Center
11:51AM 29.3269 -89.1528 304° West 286 329 16,000 -1,020 Descending Houston Center
11:52AM 29.3739 -89.2261 306° West 286 329 15,000 -1,020 Descending Houston Center
11:53AM 29.4181 -89.2994 305° West 284 327 14,000 -1,020 Descending Houston Center
11:55AM 29.4636 -89.3725 306° West 282 325 13,000 -1,080 Descending Houston Center
11:56AM 29.5169 -89.4611 305° West 281 323 11,800 -1,080 Descending Houston Center
11:56AM 29.5525 -89.5178 306° West 279 321 11,100 -840 Descending Houston Center
11:57AM 29.5622 -89.5344 304° West 281 323 11,000 -120 Descending Houston Center
11:57AM 29.5947 -89.5875 305° West 268 308 11,000  Level Houston Center
11:58AM 29.6056 -89.6031 309° West 275 316 11,000  Level Houston Center
11:58AM 29.6428 -89.6453 315° West 259 298 11,000  Level Houston Center
11:59AM 29.6556 -89.6556 325° Northwest 262 302 11,000  Level Houston Center
11:59AM 29.6964 -89.6906 323° Northwest 257 296 11,000  Level Houston Center
12:00PM 29.7119 -89.7072 317° Northwest 259 298 11,000  Level Houston Center
12:00PM 29.7592 -89.7500 322° Northwest 252 290 11,000 -240 Level Houston Center
12:01PM 29.7686 -89.7578 324° Northwest 257 296 10,800 -1,440 Descending Houston Center
12:02PM 29.8217 -89.8047 322° Northwest 265 305 9,400 -1,560 Descending Houston Center
12:02PM 29.8267 -89.8086 326° Northwest 259 298 9,200 -1,500 Descending Houston Center
12:03PM 29.8797 -89.8550 323° Northwest 264 304 7,900 -1,800 Descending Houston Center
12:03PM 29.8964 -89.8683 325° Northwest 261 300 7,400 -1,560 Descending Houston Center
12:03PM 29.9314 -89.8958 326° Northwest 245 282 6,500 -1,500 Descending Houston Center
12:04PM 29.9517 -89.9122 325° Northwest 252 290 5,900 -1,680 Descending Houston Center
12:05PM 29.9956 -89.9433 328° Northwest 233 268 4,700 -1,500 Descending Houston Center
12:05PM 30.0092 -89.9428 North 251 289 4,400 -1,020 Descending Houston Center
12:06PM 30.0581 -89.9408 North 224 258 3,700 -900 Descending Houston Center
12:06PM 30.0725 -89.9392 North 234 269 3,500 -1,020 Descending Houston Center
12:07PM 30.0989 -89.9725 312° West 199 229 2,700 -1,080 Descending Houston Center
12:07PM 30.1019 -89.9828 289° West 206 237 2,400 -1,020 Descending Houston Center
12:08PM 30.1025 -90.0181 271° West 126 145 1,700 -1,080 Descending Houston Center
12:08PM 30.0978 -90.0233 224° Southwest 158 182 1,300 -1,020 Descending Houston Center
12:09PM 30.0736 -90.0314 196° South 94 108 700 -900 Descending Houston Center
12:09PM 30.0625 -90.0308 178° South 122 140 400 -360 Descending Houston Center
12:10PM 30.0339 -90.0319 182° South 119 137 200 -240 Descending Houston Center